sensor_id;sensor_type;location;lat;lon;timestamp;temperature;humidity
2955;DHT22;1487;51.470;6.938;2022-08-19T00:01:35;18.80;99.90
2955;DHT22;1487;51.470;6.938;2022-08-19T00:04:05;18.70;99.90
2955;DHT22;1487;51.470;6.938;2022-08-19T00:06:34;18.70;99.90
2955;DHT22;1487;51.470;6.938;2022-08-19T00:09:04;18.60;99.90
2955;DHT22;1487;51.470;6.938;2022-08-19T00:11:32;18.60;99.90
2955;DHT22;1487;51.470;6.938;2022-08-19T00:14:00;18.60;99.90
2955;DHT22;1487;51.470;6.938;2022-08-19T00:16:26;18.60;99.90
2955;DHT22;1487;51.470;6.938;2022-08-19T00:18:53;18.60;99.90
2955;DHT22;1487;51.470;6.938;2022-08-19T00:21:21;18.60;99.90
2955;DHT22;1487;51.470;6.938;2022-08-19T00:23:47;18.60;99.90
2955;DHT22;1487;51.470;6.938;2022-08-19T00:26:16;18.60;99.90
2955;DHT22;1487;51.470;6.938;2022-08-19T00:28:42;18.50;99.90
2955;DHT22;1487;51.470;6.938;2022-08-19T00:31:09;18.50;99.90
2955;DHT22;1487;51.470;6.938;2022-08-19T00:33:37;18.50;99.90
2955;DHT22;1487;51.470;6.938;2022-08-19T00:36:07;18.50;99.90
2955;DHT22;1487;51.470;6.938;2022-08-19T00:38:36;18.40;99.90
2955;DHT22;1487;51.470;6.938;2022-08-19T00:41:09;18.50;99.90
2955;DHT22;1487;51.470;6.938;2022-08-19T00:43:37;18.50;99.90
2955;DHT22;1487;51.470;6.938;2022-08-19T00:46:05;18.50;99.90
2955;DHT22;1487;51.470;6.938;2022-08-19T00:48:33;18.40;99.90
2955;DHT22;1487;51.470;6.938;2022-08-19T00:51:02;18.40;99.90
2955;DHT22;1487;51.470;6.938;2022-08-19T00:53:31;18.40;99.90
2955;DHT22;1487;51.470;6.938;2022-08-19T00:56:01;18.30;99.90
2955;DHT22;1487;51.470;6.938;2022-08-19T00:58:33;18.40;99.90
2955;DHT22;1487;51.470;6.938;2022-08-19T01:01:03;18.30;99.90
2955;DHT22;1487;51.470;6.938;2022-08-19T01:03:30;18.30;99.90
2955;DHT22;1487;51.470;6.938;2022-08-19T01:05:56;18.30;99.90
2955;DHT22;1487;51.470;6.938;2022-08-19T01:08:23;18.30;99.90
2955;DHT22;1487;51.470;6.938;2022-08-19T01:10:54;18.30;99.90
2955;DHT22;1487;51.470;6.938;2022-08-19T01:13:23;18.30;99.90
2955;DHT22;1487;51.470;6.938;2022-08-19T01:15:53;18.30;99.90
2955;DHT22;1487;51.470;6.938;2022-08-19T01:18:23;18.30;99.90
2955;DHT22;1487;51.470;6.938;2022-08-19T01:20:52;18.30;99.90
2955;DHT22;1487;51.470;6.938;2022-08-19T01:23:21;18.30;99.90
2955;DHT22;1487;51.470;6.938;2022-08-19T01:26:08;18.30;99.90
2955;DHT22;1487;51.470;6.938;2022-08-19T01:28:37;18.30;99.90
2955;DHT22;1487;51.470;6.938;2022-08-19T01:31:04;18.20;99.90
2955;DHT22;1487;51.470;6.938;2022-08-19T01:33:31;18.20;99.90
2955;DHT22;1487;51.470;6.938;2022-08-19T01:36:05;18.20;99.90
2955;DHT22;1487;51.470;6.938;2022-08-19T01:38:36;18.10;99.90
2955;DHT22;1487;51.470;6.938;2022-08-19T01:41:04;18.10;99.90
2955;DHT22;1487;51.470;6.938;2022-08-19T01:43:31;18.10;99.90
2955;DHT22;1487;51.470;6.938;2022-08-19T01:45:58;18.20;99.90
2955;DHT22;1487;51.470;6.938;2022-08-19T01:48:26;18.20;99.90
2955;DHT22;1487;51.470;6.938;2022-08-19T01:50:54;18.10;99.90
2955;DHT22;1487;51.470;6.938;2022-08-19T01:53:21;18.10;99.90
2955;DHT22;1487;51.470;6.938;2022-08-19T01:55:49;18.10;99.90
2955;DHT22;1487;51.470;6.938;2022-08-19T01:58:19;18.10;99.90
2955;DHT22;1487;51.470;6.938;2022-08-19T02:00:47;18.00;99.90
2955;DHT22;1487;51.470;6.938;2022-08-19T02:03:14;18.00;99.90
2955;DHT22;1487;51.470;6.938;2022-08-19T02:05:43;18.00;99.90
2955;DHT22;1487;51.470;6.938;2022-08-19T02:08:11;18.00;99.90
2955;DHT22;1487;51.470;6.938;2022-08-19T02:10:39;17.90;99.90
2955;DHT22;1487;51.470;6.938;2022-08-19T02:13:08;17.90;99.90
2955;DHT22;1487;51.470;6.938;2022-08-19T02:15:35;17.90;99.90
2955;DHT22;1487;51.470;6.938;2022-08-19T02:18:03;17.90;99.90
2955;DHT22;1487;51.470;6.938;2022-08-19T02:20:29;17.90;99.90
2955;DHT22;1487;51.470;6.938;2022-08-19T02:22:56;17.90;99.90
2955;DHT22;1487;51.470;6.938;2022-08-19T02:25:23;17.80;99.90
2955;DHT22;1487;51.470;6.938;2022-08-19T02:27:50;17.80;99.90
2955;DHT22;1487;51.470;6.938;2022-08-19T02:30:18;17.80;99.90
2955;DHT22;1487;51.470;6.938;2022-08-19T02:32:45;17.80;99.90
2955;DHT22;1487;51.470;6.938;2022-08-19T02:35:13;17.70;99.90
2955;DHT22;1487;51.470;6.938;2022-08-19T02:37:40;17.70;99.90
2955;DHT22;1487;51.470;6.938;2022-08-19T02:40:25;17.70;99.90
2955;DHT22;1487;51.470;6.938;2022-08-19T02:42:52;17.70;99.90
2955;DHT22;1487;51.470;6.938;2022-08-19T02:45:20;17.70;99.90
2955;DHT22;1487;51.470;6.938;2022-08-19T02:47:48;17.70;99.90
2955;DHT22;1487;51.470;6.938;2022-08-19T02:50:15;17.70;99.90
2955;DHT22;1487;51.470;6.938;2022-08-19T02:52:41;17.60;99.90
2955;DHT22;1487;51.470;6.938;2022-08-19T02:55:08;17.60;99.90
2955;DHT22;1487;51.470;6.938;2022-08-19T02:57:35;17.70;99.90
2955;DHT22;1487;51.470;6.938;2022-08-19T03:00:05;17.70;99.90
2955;DHT22;1487;51.470;6.938;2022-08-19T03:02:34;17.70;99.90
2955;DHT22;1487;51.470;6.938;2022-08-19T03:05:02;17.70;99.90
2955;DHT22;1487;51.470;6.938;2022-08-19T03:07:29;17.70;99.90
2955;DHT22;1487;51.470;6.938;2022-08-19T03:09:56;17.70;99.90
2955;DHT22;1487;51.470;6.938;2022-08-19T03:12:23;17.70;99.90
2955;DHT22;1487;51.470;6.938;2022-08-19T03:14:50;17.60;99.90
2955;DHT22;1487;51.470;6.938;2022-08-19T03:17:18;17.60;99.90
2955;DHT22;1487;51.470;6.938;2022-08-19T03:19:46;17.70;99.90
2955;DHT22;1487;51.470;6.938;2022-08-19T03:22:13;17.60;99.90
2955;DHT22;1487;51.470;6.938;2022-08-19T03:24:39;17.60;99.90
2955;DHT22;1487;51.470;6.938;2022-08-19T03:27:06;17.60;99.90
2955;DHT22;1487;51.470;6.938;2022-08-19T03:29:36;17.60;99.90
2955;DHT22;1487;51.470;6.938;2022-08-19T03:32:05;17.50;99.90
2955;DHT22;1487;51.470;6.938;2022-08-19T03:34:33;17.50;99.90
2955;DHT22;1487;51.470;6.938;2022-08-19T03:37:06;17.50;99.90
2955;DHT22;1487;51.470;6.938;2022-08-19T03:39:36;17.50;99.90
2955;DHT22;1487;51.470;6.938;2022-08-19T03:42:03;17.50;99.90
2955;DHT22;1487;51.470;6.938;2022-08-19T03:44:31;17.50;99.90
2955;DHT22;1487;51.470;6.938;2022-08-19T03:46:59;17.50;99.90
2955;DHT22;1487;51.470;6.938;2022-08-19T03:49:28;17.50;99.90
2955;DHT22;1487;51.470;6.938;2022-08-19T03:51:57;17.50;99.90
2955;DHT22;1487;51.470;6.938;2022-08-19T03:54:27;17.50;99.90
2955;DHT22;1487;51.470;6.938;2022-08-19T03:56:55;17.60;99.90
2955;DHT22;1487;51.470;6.938;2022-08-19T03:59:25;17.60;99.90
2955;DHT22;1487;51.470;6.938;2022-08-19T04:01:52;17.50;99.90
2955;DHT22;1487;51.470;6.938;2022-08-19T04:04:19;17.60;99.90
2955;DHT22;1487;51.470;6.938;2022-08-19T04:06:47;17.60;99.90
2955;DHT22;1487;51.470;6.938;2022-08-19T04:09:14;17.60;99.90
2955;DHT22;1487;51.470;6.938;2022-08-19T04:11:44;17.60;99.90
2955;DHT22;1487;51.470;6.938;2022-08-19T04:14:14;17.50;99.90
2955;DHT22;1487;51.470;6.938;2022-08-19T04:16:41;17.50;99.90
2955;DHT22;1487;51.470;6.938;2022-08-19T04:19:09;17.50;99.90
2955;DHT22;1487;51.470;6.938;2022-08-19T04:21:36;17.50;99.90
2955;DHT22;1487;51.470;6.938;2022-08-19T04:24:03;17.40;99.90
2955;DHT22;1487;51.470;6.938;2022-08-19T04:26:33;17.40;99.90
2955;DHT22;1487;51.470;6.938;2022-08-19T04:29:04;17.40;99.90
2955;DHT22;1487;51.470;6.938;2022-08-19T04:31:33;17.40;99.90
2955;DHT22;1487;51.470;6.938;2022-08-19T04:34:02;17.40;99.90
2955;DHT22;1487;51.470;6.938;2022-08-19T04:36:33;17.40;99.90
2955;DHT22;1487;51.470;6.938;2022-08-19T04:39:04;17.50;99.90
2955;DHT22;1487;51.470;6.938;2022-08-19T04:41:31;17.50;99.90
2955;DHT22;1487;51.470;6.938;2022-08-19T04:44:17;17.60;99.90
2955;DHT22;1487;51.470;6.938;2022-08-19T04:46:44;17.60;99.90
2955;DHT22;1487;51.470;6.938;2022-08-19T04:49:12;17.50;99.90
2955;DHT22;1487;51.470;6.938;2022-08-19T04:51:41;17.60;99.90
2955;DHT22;1487;51.470;6.938;2022-08-19T04:54:08;17.60;99.90
2955;DHT22;1487;51.470;6.938;2022-08-19T04:56:35;17.60;99.90
2955;DHT22;1487;51.470;6.938;2022-08-19T04:59:02;17.60;99.90
2955;DHT22;1487;51.470;6.938;2022-08-19T05:01:32;17.60;99.90
2955;DHT22;1487;51.470;6.938;2022-08-19T05:04:00;17.60;99.90
2955;DHT22;1487;51.470;6.938;2022-08-19T05:06:29;17.70;99.90
2955;DHT22;1487;51.470;6.938;2022-08-19T05:08:59;17.80;99.90
2955;DHT22;1487;51.470;6.938;2022-08-19T05:11:28;17.80;99.90
2955;DHT22;1487;51.470;6.938;2022-08-19T05:13:56;17.90;99.90
2955;DHT22;1487;51.470;6.938;2022-08-19T05:16:25;18.00;99.90
2955;DHT22;1487;51.470;6.938;2022-08-19T05:18:54;18.10;99.90
2955;DHT22;1487;51.470;6.938;2022-08-19T05:21:40;18.30;99.90
2955;DHT22;1487;51.470;6.938;2022-08-19T05:24:26;18.40;99.90
2955;DHT22;1487;51.470;6.938;2022-08-19T05:26:54;18.70;99.90
2955;DHT22;1487;51.470;6.938;2022-08-19T05:29:25;18.80;99.90
2955;DHT22;1487;51.470;6.938;2022-08-19T05:31:53;19.00;99.90
2955;DHT22;1487;51.470;6.938;2022-08-19T05:34:23;19.20;99.90
2955;DHT22;1487;51.470;6.938;2022-08-19T05:36:52;19.40;99.90
2955;DHT22;1487;51.470;6.938;2022-08-19T05:41:55;19.60;99.90
2955;DHT22;1487;51.470;6.938;2022-08-19T05:44:23;19.70;99.90
2955;DHT22;1487;51.470;6.938;2022-08-19T05:46:51;19.70;99.90
2955;DHT22;1487;51.470;6.938;2022-08-19T05:49:22;19.80;99.90
2955;DHT22;1487;51.470;6.938;2022-08-19T05:51:50;19.90;99.90
2955;DHT22;1487;51.470;6.938;2022-08-19T05:54:18;20.00;99.90
2955;DHT22;1487;51.470;6.938;2022-08-19T05:56:46;20.10;99.90
2955;DHT22;1487;51.470;6.938;2022-08-19T05:59:15;20.30;99.90
2955;DHT22;1487;51.470;6.938;2022-08-19T06:01:44;20.60;99.90
2955;DHT22;1487;51.470;6.938;2022-08-19T06:04:12;20.80;99.90
2955;DHT22;1487;51.470;6.938;2022-08-19T06:06:41;21.20;99.90
2955;DHT22;1487;51.470;6.938;2022-08-19T06:09:08;21.60;99.90
2955;DHT22;1487;51.470;6.938;2022-08-19T06:11:37;22.20;99.90
2955;DHT22;1487;51.470;6.938;2022-08-19T06:14:09;22.90;99.90
2955;DHT22;1487;51.470;6.938;2022-08-19T06:16:37;23.70;99.90
2955;DHT22;1487;51.470;6.938;2022-08-19T06:19:06;24.70;99.90
2955;DHT22;1487;51.470;6.938;2022-08-19T06:21:34;24.80;99.90
2955;DHT22;1487;51.470;6.938;2022-08-19T06:24:04;24.20;99.90
2955;DHT22;1487;51.470;6.938;2022-08-19T06:26:33;23.40;99.90
2955;DHT22;1487;51.470;6.938;2022-08-19T06:29:01;22.90;99.90
2955;DHT22;1487;51.470;6.938;2022-08-19T06:31:28;22.90;99.90
2955;DHT22;1487;51.470;6.938;2022-08-19T06:33:56;22.80;99.90
2955;DHT22;1487;51.470;6.938;2022-08-19T06:36:26;22.80;99.90
2955;DHT22;1487;51.470;6.938;2022-08-19T06:38:57;22.50;99.90
2955;DHT22;1487;51.470;6.938;2022-08-19T06:41:25;22.30;99.90
2955;DHT22;1487;51.470;6.938;2022-08-19T06:43:53;22.10;99.90
2955;DHT22;1487;51.470;6.938;2022-08-19T06:46:20;22.60;99.90
2955;DHT22;1487;51.470;6.938;2022-08-19T06:48:47;23.60;99.90
2955;DHT22;1487;51.470;6.938;2022-08-19T06:51:15;24.40;99.90
2955;DHT22;1487;51.470;6.938;2022-08-19T06:53:44;25.50;99.90
2955;DHT22;1487;51.470;6.938;2022-08-19T06:56:12;26.10;99.90
2955;DHT22;1487;51.470;6.938;2022-08-19T06:58:41;26.40;99.90
2955;DHT22;1487;51.470;6.938;2022-08-19T07:01:08;26.90;99.90
2955;DHT22;1487;51.470;6.938;2022-08-19T07:03:37;27.10;99.90
2955;DHT22;1487;51.470;6.938;2022-08-19T07:06:05;27.30;99.90
2955;DHT22;1487;51.470;6.938;2022-08-19T07:08:33;27.90;99.90
2955;DHT22;1487;51.470;6.938;2022-08-19T07:11:02;28.50;99.90
2955;DHT22;1487;51.470;6.938;2022-08-19T07:13:28;28.40;99.90
2955;DHT22;1487;51.470;6.938;2022-08-19T07:16:04;28.50;99.90
2955;DHT22;1487;51.470;6.938;2022-08-19T07:18:31;28.70;99.90
2955;DHT22;1487;51.470;6.938;2022-08-19T07:21:03;29.10;99.90
2955;DHT22;1487;51.470;6.938;2022-08-19T07:23:30;28.90;99.90
2955;DHT22;1487;51.470;6.938;2022-08-19T07:25:57;29.20;99.90
2955;DHT22;1487;51.470;6.938;2022-08-19T07:28:24;29.00;99.90
2955;DHT22;1487;51.470;6.938;2022-08-19T07:30:51;28.90;99.90
2955;DHT22;1487;51.470;6.938;2022-08-19T07:33:20;28.60;99.90
2955;DHT22;1487;51.470;6.938;2022-08-19T07:35:47;28.00;99.90
2955;DHT22;1487;51.470;6.938;2022-08-19T07:38:15;28.40;99.90
2955;DHT22;1487;51.470;6.938;2022-08-19T07:40:43;29.60;99.90
2955;DHT22;1487;51.470;6.938;2022-08-19T07:43:11;30.70;99.90
2955;DHT22;1487;51.470;6.938;2022-08-19T07:45:38;31.60;99.90
2955;DHT22;1487;51.470;6.938;2022-08-19T07:48:04;31.30;99.90
2955;DHT22;1487;51.470;6.938;2022-08-19T07:50:33;31.60;97.70
2955;DHT22;1487;51.470;6.938;2022-08-19T07:53:00;31.70;97.80
2955;DHT22;1487;51.470;6.938;2022-08-19T07:55:26;31.40;97.10
2955;DHT22;1487;51.470;6.938;2022-08-19T07:57:53;30.60;99.40
2955;DHT22;1487;51.470;6.938;2022-08-19T08:00:20;31.00;99.90
2955;DHT22;1487;51.470;6.938;2022-08-19T08:02:47;31.50;98.80
2955;DHT22;1487;51.470;6.938;2022-08-19T08:05:14;31.70;96.70
2955;DHT22;1487;51.470;6.938;2022-08-19T08:08:00;31.60;97.90
2955;DHT22;1487;51.470;6.938;2022-08-19T08:10:44;32.40;94.20
2955;DHT22;1487;51.470;6.938;2022-08-19T08:13:11;32.90;92.10
2955;DHT22;1487;51.470;6.938;2022-08-19T08:15:39;32.60;91.70
2955;DHT22;1487;51.470;6.938;2022-08-19T08:18:05;32.60;91.60
2955;DHT22;1487;51.470;6.938;2022-08-19T08:20:33;32.70;91.10
2955;DHT22;1487;51.470;6.938;2022-08-19T08:23:01;32.40;91.20
2955;DHT22;1487;51.470;6.938;2022-08-19T08:25:45;32.30;91.60
2955;DHT22;1487;51.470;6.938;2022-08-19T08:28:14;32.30;91.40
2955;DHT22;1487;51.470;6.938;2022-08-19T08:30:40;32.30;91.40
2955;DHT22;1487;51.470;6.938;2022-08-19T08:33:09;32.30;91.70
2955;DHT22;1487;51.470;6.938;2022-08-19T08:35:36;32.00;90.20
2955;DHT22;1487;51.470;6.938;2022-08-19T08:38:05;31.70;91.00
2955;DHT22;1487;51.470;6.938;2022-08-19T08:40:38;31.40;91.80
2955;DHT22;1487;51.470;6.938;2022-08-19T08:43:09;31.10;92.50
2955;DHT22;1487;51.470;6.938;2022-08-19T08:45:43;31.60;92.00
2955;DHT22;1487;51.470;6.938;2022-08-19T08:48:17;31.70;91.40
2955;DHT22;1487;51.470;6.938;2022-08-19T08:50:45;32.40;90.90
2955;DHT22;1487;51.470;6.938;2022-08-19T08:53:19;33.60;85.20
2955;DHT22;1487;51.470;6.938;2022-08-19T08:55:46;33.60;83.10
2955;DHT22;1487;51.470;6.938;2022-08-19T08:58:17;33.70;82.60
2955;DHT22;1487;51.470;6.938;2022-08-19T09:00:48;33.50;80.10
2955;DHT22;1487;51.470;6.938;2022-08-19T09:03:18;32.80;79.30
2955;DHT22;1487;51.470;6.938;2022-08-19T09:05:55;31.90;82.90
2955;DHT22;1487;51.470;6.938;2022-08-19T09:08:39;31.10;84.80
2955;DHT22;1487;51.470;6.938;2022-08-19T09:11:08;30.50;88.10
2955;DHT22;1487;51.470;6.938;2022-08-19T09:13:44;30.20;88.30
2955;DHT22;1487;51.470;6.938;2022-08-19T09:16:20;29.70;90.50
2955;DHT22;1487;51.470;6.938;2022-08-19T09:18:55;29.30;91.30
2955;DHT22;1487;51.470;6.938;2022-08-19T09:21:24;29.40;91.80
2955;DHT22;1487;51.470;6.938;2022-08-19T09:23:54;29.60;91.70
2955;DHT22;1487;51.470;6.938;2022-08-19T09:26:23;30.20;90.20
2955;DHT22;1487;51.470;6.938;2022-08-19T09:28:51;30.50;89.40
2955;DHT22;1487;51.470;6.938;2022-08-19T09:31:21;30.70;87.10
2955;DHT22;1487;51.470;6.938;2022-08-19T09:33:49;31.10;84.50
2955;DHT22;1487;51.470;6.938;2022-08-19T09:36:18;31.90;84.60
2955;DHT22;1487;51.470;6.938;2022-08-19T09:38:45;32.50;80.50
2955;DHT22;1487;51.470;6.938;2022-08-19T09:41:16;32.40;79.70
2955;DHT22;1487;51.470;6.938;2022-08-19T09:43:46;32.10;81.00
2955;DHT22;1487;51.470;6.938;2022-08-19T09:46:13;32.60;79.80
2955;DHT22;1487;51.470;6.938;2022-08-19T09:48:42;33.40;77.50
2955;DHT22;1487;51.470;6.938;2022-08-19T09:51:13;33.90;74.70
2955;DHT22;1487;51.470;6.938;2022-08-19T09:53:41;33.70;74.20
2955;DHT22;1487;51.470;6.938;2022-08-19T09:56:09;33.30;74.40
2955;DHT22;1487;51.470;6.938;2022-08-19T09:58:37;33.20;75.30
2955;DHT22;1487;51.470;6.938;2022-08-19T10:01:05;33.30;74.50
2955;DHT22;1487;51.470;6.938;2022-08-19T10:03:34;33.30;74.00
2955;DHT22;1487;51.470;6.938;2022-08-19T10:06:03;33.40;74.70
2955;DHT22;1487;51.470;6.938;2022-08-19T10:08:32;33.20;75.80
2955;DHT22;1487;51.470;6.938;2022-08-19T10:11:00;33.60;74.20
2955;DHT22;1487;51.470;6.938;2022-08-19T10:13:30;33.90;73.30
2955;DHT22;1487;51.470;6.938;2022-08-19T10:16:05;33.70;72.00
2955;DHT22;1487;51.470;6.938;2022-08-19T10:18:32;33.80;72.60
2955;DHT22;1487;51.470;6.938;2022-08-19T10:21:05;32.80;72.80
2955;DHT22;1487;51.470;6.938;2022-08-19T10:23:34;32.90;74.40
2955;DHT22;1487;51.470;6.938;2022-08-19T10:26:02;32.90;73.20
2955;DHT22;1487;51.470;6.938;2022-08-19T10:28:31;32.60;74.60
2955;DHT22;1487;51.470;6.938;2022-08-19T10:31:03;32.40;74.80
2955;DHT22;1487;51.470;6.938;2022-08-19T10:33:32;32.20;75.60
2955;DHT22;1487;51.470;6.938;2022-08-19T10:36:00;31.70;76.40
2955;DHT22;1487;51.470;6.938;2022-08-19T10:38:26;31.20;78.30
2955;DHT22;1487;51.470;6.938;2022-08-19T10:40:54;31.50;78.20
2955;DHT22;1487;51.470;6.938;2022-08-19T10:43:21;31.70;77.70
2955;DHT22;1487;51.470;6.938;2022-08-19T10:45:52;31.80;78.10
2955;DHT22;1487;51.470;6.938;2022-08-19T10:48:21;32.90;76.50
2955;DHT22;1487;51.470;6.938;2022-08-19T10:50:48;32.90;73.60
2955;DHT22;1487;51.470;6.938;2022-08-19T10:53:32;32.10;74.80
2955;DHT22;1487;51.470;6.938;2022-08-19T10:55:59;31.40;77.00
2955;DHT22;1487;51.470;6.938;2022-08-19T10:58:43;31.50;77.40
2955;DHT22;1487;51.470;6.938;2022-08-19T11:01:10;32.30;76.30
2955;DHT22;1487;51.470;6.938;2022-08-19T11:03:38;32.50;74.80
2955;DHT22;1487;51.470;6.938;2022-08-19T11:06:07;32.10;75.80
2955;DHT22;1487;51.470;6.938;2022-08-19T11:08:34;32.20;76.50
2955;DHT22;1487;51.470;6.938;2022-08-19T11:11:04;33.30;72.20
2955;DHT22;1487;51.470;6.938;2022-08-19T11:13:33;33.70;69.70
2955;DHT22;1487;51.470;6.938;2022-08-19T11:16:05;32.60;69.50
2955;DHT22;1487;51.470;6.938;2022-08-19T11:18:33;31.60;73.50
2955;DHT22;1487;51.470;6.938;2022-08-19T11:21:15;31.10;72.30
2955;DHT22;1487;51.470;6.938;2022-08-19T11:23:43;31.40;72.50
2955;DHT22;1487;51.470;6.938;2022-08-19T11:26:10;31.90;70.40
2955;DHT22;1487;51.470;6.938;2022-08-19T11:28:37;31.50;71.90
2955;DHT22;1487;51.470;6.938;2022-08-19T11:31:09;31.50;71.20
2955;DHT22;1487;51.470;6.938;2022-08-19T11:33:36;32.30;71.70
2955;DHT22;1487;51.470;6.938;2022-08-19T11:36:04;32.60;69.40
2955;DHT22;1487;51.470;6.938;2022-08-19T11:38:32;33.00;67.50
2955;DHT22;1487;51.470;6.938;2022-08-19T11:41:04;32.50;68.60
2955;DHT22;1487;51.470;6.938;2022-08-19T11:43:31;32.30;68.20
2955;DHT22;1487;51.470;6.938;2022-08-19T11:45:58;31.80;70.10
2955;DHT22;1487;51.470;6.938;2022-08-19T11:48:25;31.60;69.20
2955;DHT22;1487;51.470;6.938;2022-08-19T11:50:53;31.80;69.70
2955;DHT22;1487;51.470;6.938;2022-08-19T11:53:21;32.70;68.60
2955;DHT22;1487;51.470;6.938;2022-08-19T11:55:49;33.60;68.10
2955;DHT22;1487;51.470;6.938;2022-08-19T11:58:17;34.20;66.20
2955;DHT22;1487;51.470;6.938;2022-08-19T12:00:44;34.50;64.10
2955;DHT22;1487;51.470;6.938;2022-08-19T12:03:12;34.80;63.00
2955;DHT22;1487;51.470;6.938;2022-08-19T12:05:40;35.10;63.60
2955;DHT22;1487;51.470;6.938;2022-08-19T12:08:07;35.90;59.70
2955;DHT22;1487;51.470;6.938;2022-08-19T12:10:35;35.50;59.70
2955;DHT22;1487;51.470;6.938;2022-08-19T12:13:03;35.50;58.60
2955;DHT22;1487;51.470;6.938;2022-08-19T12:15:30;35.30;57.40
2955;DHT22;1487;51.470;6.938;2022-08-19T12:18:01;34.50;58.70
2955;DHT22;1487;51.470;6.938;2022-08-19T12:20:28;34.10;59.20
2955;DHT22;1487;51.470;6.938;2022-08-19T12:22:54;33.70;60.60
2955;DHT22;1487;51.470;6.938;2022-08-19T12:25:22;33.90;62.20
2955;DHT22;1487;51.470;6.938;2022-08-19T12:27:49;35.10;60.90
2955;DHT22;1487;51.470;6.938;2022-08-19T12:30:18;35.30;58.30
2955;DHT22;1487;51.470;6.938;2022-08-19T12:32:45;35.30;57.80
2955;DHT22;1487;51.470;6.938;2022-08-19T12:35:11;35.30;57.30
2955;DHT22;1487;51.470;6.938;2022-08-19T12:37:39;34.80;57.30
2955;DHT22;1487;51.470;6.938;2022-08-19T12:40:10;35.20;58.40
2955;DHT22;1487;51.470;6.938;2022-08-19T12:42:38;35.80;57.40
2955;DHT22;1487;51.470;6.938;2022-08-19T12:45:08;35.70;57.00
2955;DHT22;1487;51.470;6.938;2022-08-19T12:47:36;35.80;57.10
2955;DHT22;1487;51.470;6.938;2022-08-19T12:50:05;35.50;56.50
2955;DHT22;1487;51.470;6.938;2022-08-19T12:52:34;35.80;56.10
2955;DHT22;1487;51.470;6.938;2022-08-19T12:55:04;35.70;56.40
2955;DHT22;1487;51.470;6.938;2022-08-19T12:57:31;35.80;56.30
2955;DHT22;1487;51.470;6.938;2022-08-19T13:00:03;36.40;55.40
2955;DHT22;1487;51.470;6.938;2022-08-19T13:02:32;36.40;54.30
2955;DHT22;1487;51.470;6.938;2022-08-19T13:05:01;36.10;55.40
2955;DHT22;1487;51.470;6.938;2022-08-19T13:07:28;36.50;55.50
2955;DHT22;1487;51.470;6.938;2022-08-19T13:09:56;37.20;54.90
2955;DHT22;1487;51.470;6.938;2022-08-19T13:12:23;36.60;53.70
2955;DHT22;1487;51.470;6.938;2022-08-19T13:14:49;36.90;53.50
2955;DHT22;1487;51.470;6.938;2022-08-19T13:17:17;36.60;54.00
2955;DHT22;1487;51.470;6.938;2022-08-19T13:19:44;35.90;54.30
2955;DHT22;1487;51.470;6.938;2022-08-19T13:22:12;35.10;55.00
2955;DHT22;1487;51.470;6.938;2022-08-19T13:24:39;35.00;55.30
2955;DHT22;1487;51.470;6.938;2022-08-19T13:27:06;35.60;55.30
2955;DHT22;1487;51.470;6.938;2022-08-19T13:29:33;36.00;54.10
2955;DHT22;1487;51.470;6.938;2022-08-19T13:32:17;36.50;53.50
2955;DHT22;1487;51.470;6.938;2022-08-19T13:35:01;36.30;53.40
2955;DHT22;1487;51.470;6.938;2022-08-19T13:37:30;35.70;53.60
2955;DHT22;1487;51.470;6.938;2022-08-19T13:40:10;35.30;55.70
2955;DHT22;1487;51.470;6.938;2022-08-19T13:42:38;35.80;54.20
2955;DHT22;1487;51.470;6.938;2022-08-19T13:45:06;35.70;54.20
2955;DHT22;1487;51.470;6.938;2022-08-19T13:47:33;35.30;54.50
2955;DHT22;1487;51.470;6.938;2022-08-19T13:50:02;35.70;55.30
2955;DHT22;1487;51.470;6.938;2022-08-19T13:52:30;36.70;54.60
2955;DHT22;1487;51.470;6.938;2022-08-19T13:54:57;37.40;54.30
2955;DHT22;1487;51.470;6.938;2022-08-19T13:57:24;36.80;52.70
2955;DHT22;1487;51.470;6.938;2022-08-19T13:59:50;36.30;53.00
2955;DHT22;1487;51.470;6.938;2022-08-19T14:02:17;36.20;53.20
2955;DHT22;1487;51.470;6.938;2022-08-19T14:04:44;35.10;53.90
2955;DHT22;1487;51.470;6.938;2022-08-19T14:07:11;33.90;55.60
2955;DHT22;1487;51.470;6.938;2022-08-19T14:09:39;33.50;56.50
2955;DHT22;1487;51.470;6.938;2022-08-19T14:12:07;33.90;56.30
2955;DHT22;1487;51.470;6.938;2022-08-19T14:14:36;33.50;56.00
2955;DHT22;1487;51.470;6.938;2022-08-19T14:17:05;33.30;56.40
2955;DHT22;1487;51.470;6.938;2022-08-19T14:19:32;32.40;56.80
2955;DHT22;1487;51.470;6.938;2022-08-19T14:21:59;31.80;58.10
2955;DHT22;1487;51.470;6.938;2022-08-19T14:24:26;31.30;59.70
2955;DHT22;1487;51.470;6.938;2022-08-19T14:26:55;31.70;58.80
2955;DHT22;1487;51.470;6.938;2022-08-19T14:29:23;32.00;58.90
2955;DHT22;1487;51.470;6.938;2022-08-19T14:31:50;32.50;58.60
2955;DHT22;1487;51.470;6.938;2022-08-19T14:34:17;32.70;57.10
2955;DHT22;1487;51.470;6.938;2022-08-19T14:36:44;33.30;56.70
2955;DHT22;1487;51.470;6.938;2022-08-19T14:39:11;33.50;56.30
2955;DHT22;1487;51.470;6.938;2022-08-19T14:41:40;33.20;56.50
2955;DHT22;1487;51.470;6.938;2022-08-19T14:44:08;33.00;57.80
2955;DHT22;1487;51.470;6.938;2022-08-19T14:46:38;32.30;58.40
2955;DHT22;1487;51.470;6.938;2022-08-19T14:49:06;32.20;59.80
2955;DHT22;1487;51.470;6.938;2022-08-19T14:51:33;31.70;60.60
2955;DHT22;1487;51.470;6.938;2022-08-19T14:54:00;31.00;61.70
2955;DHT22;1487;51.470;6.938;2022-08-19T14:56:28;30.00;64.10
2955;DHT22;1487;51.470;6.938;2022-08-19T14:58:56;30.00;66.80
2955;DHT22;1487;51.470;6.938;2022-08-19T15:01:27;30.10;66.50
2955;DHT22;1487;51.470;6.938;2022-08-19T15:03:54;30.20;64.90
2955;DHT22;1487;51.470;6.938;2022-08-19T15:06:22;30.10;64.50
2955;DHT22;1487;51.470;6.938;2022-08-19T15:08:49;30.40;64.00
2955;DHT22;1487;51.470;6.938;2022-08-19T15:11:19;30.70;63.40
2955;DHT22;1487;51.470;6.938;2022-08-19T15:13:48;31.40;62.40
2955;DHT22;1487;51.470;6.938;2022-08-19T15:16:16;31.80;60.10
2955;DHT22;1487;51.470;6.938;2022-08-19T15:18:45;32.10;60.70
2955;DHT22;1487;51.470;6.938;2022-08-19T15:21:13;32.50;58.90
2955;DHT22;1487;51.470;6.938;2022-08-19T15:23:43;32.60;58.50
2955;DHT22;1487;51.470;6.938;2022-08-19T15:26:10;32.50;57.40
2955;DHT22;1487;51.470;6.938;2022-08-19T15:28:39;32.40;57.80
2955;DHT22;1487;51.470;6.938;2022-08-19T15:31:06;31.70;58.00
2955;DHT22;1487;51.470;6.938;2022-08-19T15:33:33;31.10;59.00
2955;DHT22;1487;51.470;6.938;2022-08-19T15:36:04;30.50;61.60
2955;DHT22;1487;51.470;6.938;2022-08-19T15:38:32;30.10;61.10
2955;DHT22;1487;51.470;6.938;2022-08-19T15:40:59;29.70;61.40
2955;DHT22;1487;51.470;6.938;2022-08-19T15:43:48;29.50;61.50
2955;DHT22;1487;51.470;6.938;2022-08-19T15:46:16;29.10;62.10
2955;DHT22;1487;51.470;6.938;2022-08-19T15:48:43;28.90;62.80
2955;DHT22;1487;51.470;6.938;2022-08-19T15:51:12;28.80;63.10
2955;DHT22;1487;51.470;6.938;2022-08-19T15:53:39;28.50;63.00
2955;DHT22;1487;51.470;6.938;2022-08-19T15:56:06;28.30;63.70
2955;DHT22;1487;51.470;6.938;2022-08-19T15:58:33;28.20;64.60
2955;DHT22;1487;51.470;6.938;2022-08-19T16:01:17;27.90;64.10
2955;DHT22;1487;51.470;6.938;2022-08-19T16:04:02;27.70;65.80
2955;DHT22;1487;51.470;6.938;2022-08-19T16:06:49;27.40;66.60
2955;DHT22;1487;51.470;6.938;2022-08-19T16:09:17;27.30;68.00
2955;DHT22;1487;51.470;6.938;2022-08-19T16:11:45;27.20;69.30
2955;DHT22;1487;51.470;6.938;2022-08-19T16:14:13;27.00;69.30
2955;DHT22;1487;51.470;6.938;2022-08-19T16:16:40;27.00;70.40